Time;durP1;ratioP1;P1;durP2;ratioP2;P2;SDS_P1;SDS_P2;PMS_P1;PMS_P2;Temp;Humidity;BMP_temperature;BMP_pressure;BME280_temperature;BME280_humidity;BME280_pressure;Samples;Min_cycle;Max_cycle;Signal;HPM_P1;HPM_P2
2021/09/20 00:00:11;;;;;;;6.28;3.00;;;;;;;11.37;74.49;102055.81;4900342;29;20036;-54
2021/09/20 00:02:37;;;;;;;4.75;2.90;;;;;;;11.35;74.42;102049.84;4902983;29;20039;-54
2021/09/20 00:05:04;;;;;;;5.60;3.35;;;;;;;11.35;74.45;102049.84;4900076;29;20682;-53
2021/09/20 00:07:30;;;;;;;4.70;2.97;;;;;;;11.32;74.58;102052.97;4908079;29;20652;-55
2021/09/20 00:09:55;;;;;;;8.80;3.28;;;;;;;11.33;74.63;102047.38;4905610;29;20035;-52
2021/09/20 00:12:21;;;;;;;4.57;3.00;;;;;;;11.29;74.80;102045.34;4902044;29;20091;-54
2021/09/20 00:14:46;;;;;;;5.32;3.05;;;;;;;11.04;75.95;102042.69;4904265;29;20070;-54
2021/09/20 00:17:12;;;;;;;4.78;2.72;;;;;;;11.02;75.78;102034.03;4907664;29;20482;-52
2021/09/20 00:19:38;;;;;;;4.80;2.92;;;;;;;11.01;75.78;102033.22;4903162;29;20522;-53
2021/09/20 00:22:03;;;;;;;6.78;3.17;;;;;;;10.77;77.14;102032.19;4910387;29;20505;-53
2021/09/20 00:24:29;;;;;;;7.15;3.45;;;;;;;10.90;76.35;102037.41;4902863;29;20502;-53
2021/09/20 00:26:54;;;;;;;5.35;3.22;;;;;;;11.02;75.71;102047.44;4905284;29;20044;-52
2021/09/20 00:29:20;;;;;;;6.10;3.88;;;;;;;11.03;76.42;102052.59;4904369;29;20024;-53
2021/09/20 00:31:46;;;;;;;5.88;2.88;;;;;;;11.06;76.35;102051.31;4905195;29;20620;-52
2021/09/20 00:34:11;;;;;;;8.88;3.35;;;;;;;11.10;76.35;102045.28;4906782;29;20033;-53
2021/09/20 00:36:37;;;;;;;5.63;3.70;;;;;;;11.10;76.17;102047.97;4904576;29;20031;-55
2021/09/20 00:39:03;;;;;;;5.63;3.50;;;;;;;11.13;76.38;102052.94;4906173;29;20020;-52
2021/09/20 00:41:28;;;;;;;6.85;3.65;;;;;;;11.14;76.51;102051.06;4909869;29;20039;-52
2021/09/20 00:43:54;;;;;;;6.85;2.97;;;;;;;11.17;76.26;102048.75;4910157;29;20453;-54
2021/09/20 00:46:19;;;;;;;3.72;3.03;;;;;;;11.13;76.53;102052.94;4903132;29;20172;-54
2021/09/20 00:48:45;;;;;;;6.10;3.28;;;;;;;11.15;76.52;102050.03;4901597;29;20119;-54
2021/09/20 00:51:10;;;;;;;5.35;3.20;;;;;;;11.17;76.40;102056.81;4901178;29;20418;-52
2021/09/20 00:53:36;;;;;;;7.20;3.25;;;;;;;11.15;76.58;102050.03;4903133;29;20107;-54
2021/09/20 00:56:02;;;;;;;5.68;3.45;;;;;;;11.15;76.92;102050.84;4907152;29;20096;-52
2021/09/20 00:58:28;;;;;;;5.95;3.13;;;;;;;11.15;76.60;102055.41;4905671;29;20039;-53
2021/09/20 01:00:54;;;;;;;6.68;3.63;;;;;;;11.18;76.60;102053.09;4902245;29;20040;-55
2021/09/20 01:03:19;;;;;;;7.07;3.55;;;;;;;11.17;76.62;102058.66;4904974;29;20032;-52
2021/09/20 01:05:45;;;;;;;5.18;3.42;;;;;;;11.17;76.60;102062.19;4903308;29;20410;-55
2021/09/20 01:08:10;;;;;;;7.45;3.40;;;;;;;11.17;76.71;102059.50;4900494;29;20020;-55
2021/09/20 01:10:36;;;;;;;5.88;3.42;;;;;;;11.15;76.84;102063.44;4903851;29;20394;-53
2021/09/20 01:13:02;;;;;;;6.22;3.33;;;;;;;11.15;76.64;102056.22;4906179;29;20115;-52
2021/09/20 01:15:28;;;;;;;7.93;3.15;;;;;;;11.14;76.59;102059.94;4904204;29;20072;-52
2021/09/20 01:17:54;;;;;;;4.78;2.78;;;;;;;11.13;76.43;102058.28;4904849;29;20454;-54
2021/09/20 01:20:21;;;;;;;4.72;3.40;;;;;;;11.11;76.61;102065.72;4910792;29;20032;-52
2021/09/20 01:22:52;;;;;;;6.10;3.10;;;;;;;11.11;76.51;102060.34;4908027;29;20383;-53
2021/09/20 01:25:18;;;;;;;5.30;2.90;;;;;;;11.12;76.63;102063.84;4915334;29;20164;-53
2021/09/20 01:27:43;;;;;;;4.85;3.10;;;;;;;11.09;76.75;102061.63;4907217;29;20129;-51
2021/09/20 01:30:09;;;;;;;7.30;3.05;;;;;;;11.12;76.56;102055.81;4904526;29;20031;-52
2021/09/20 01:32:35;;;;;;;7.03;3.00;;;;;;;11.11;76.65;102060.34;4910407;29;20028;-54
2021/09/20 01:35:00;;;;;;;6.47;3.30;;;;;;;11.13;76.19;102062.81;4906538;29;20067;-52
2021/09/20 01:37:26;;;;;;;5.22;3.03;;;;;;;11.13;76.11;102058.28;4906309;29;20043;-54
2021/09/20 01:39:53;;;;;;;6.82;3.20;;;;;;;10.84;77.85;102054.41;4904858;29;20179;-56
2021/09/20 01:42:18;;;;;;;5.55;3.25;;;;;;;10.67;79.38;102047.09;4904638;29;20445;-52
2021/09/20 01:44:43;;;;;;;8.82;3.30;;;;;;;10.67;79.08;102047.91;4907150;29;20024;-52
2021/09/20 01:47:10;;;;;;;6.10;3.63;;;;;;;10.78;78.41;102055.28;4904265;29;20416;-53
2021/09/20 01:49:36;;;;;;;10.07;3.50;;;;;;;10.85;78.32;102060.56;4905074;29;20107;-52
2021/09/20 01:52:01;;;;;;;5.63;3.22;;;;;;;10.88;78.00;102060.97;4909092;29;20064;-52
2021/09/20 01:54:27;;;;;;;6.63;3.25;;;;;;;10.92;78.30;102066.69;4906035;29;20036;-52
2021/09/20 01:56:52;;;;;;;4.07;3.15;;;;;;;10.92;78.35;102061.34;4902758;29;20468;-51
2021/09/20 01:59:18;;;;;;;8.05;3.50;;;;;;;10.93;78.62;102062.97;4902640;29;20107;-52
2021/09/20 02:01:44;;;;;;;7.07;3.25;;;;;;;10.92;78.72;102055.97;4903341;29;20044;-53
2021/09/20 02:04:09;;;;;;;6.53;3.70;;;;;;;10.93;78.98;102064.84;4906093;29;20591;-54
2021/09/20 02:06:35;;;;;;;6.55;3.47;;;;;;;10.92;78.73;102050.59;4908319;29;20171;-55
2021/09/20 02:09:01;;;;;;;8.32;3.70;;;;;;;10.92;78.66;102055.97;4903834;29;20088;-53
2021/09/20 02:11:26;;;;;;;6.95;3.25;;;;;;;10.93;78.74;102044.19;4906336;29;20051;-53
2021/09/20 02:13:53;;;;;;;6.53;3.83;;;;;;;10.91;78.76;102054.31;4904827;29;20051;-52
2021/09/20 02:16:19;;;;;;;5.40;3.67;;;;;;;10.90;78.79;102058.06;4902753;29;20126;-55
2021/09/20 02:18:45;;;;;;;8.60;3.65;;;;;;;10.91;78.73;102048.97;4905434;29;20446;-52
2021/09/20 02:21:13;;;;;;;9.52;3.63;;;;;;;10.90;78.98;102052.69;4906835;29;20111;-52
2021/09/20 02:23:39;;;;;;;6.07;3.60;;;;;;;10.87;79.09;102056.63;4906238;29;20044;-54
2021/09/20 02:26:05;;;;;;;5.93;3.58;;;;;;;10.90;78.83;102055.38;4907667;29;20458;-56
2021/09/20 02:28:31;;;;;;;7.88;3.40;;;;;;;10.87;78.84;102055.81;4905502;29;20060;-54
2021/09/20 02:30:57;;;;;;;6.10;3.05;;;;;;;10.85;78.92;102052.53;4906443;29;20046;-53
2021/09/20 02:33:23;;;;;;;7.50;3.63;;;;;;;10.84;78.97;102048.22;4903962;29;20032;-52
2021/09/20 02:35:49;;;;;;;5.22;3.28;;;;;;;10.80;79.08;102047.00;4909637;29;20036;-52
2021/09/20 02:38:15;;;;;;;7.78;3.60;;;;;;;10.74;79.18;102045.19;4904590;29;20043;-55
2021/09/20 02:40:40;;;;;;;7.10;3.40;;;;;;;10.68;79.41;102048.75;4902895;29;20046;-54
2021/09/20 02:43:06;;;;;;;6.75;3.65;;;;;;;10.56;79.72;102041.38;4905296;29;20036;-55
2021/09/20 02:45:31;;;;;;;8.55;4.32;;;;;;;10.49;79.92;102050.50;4902016;29;20036;-55
2021/09/20 02:47:57;;;;;;;5.32;3.08;;;;;;;10.41;79.83;102051.59;4907077;29;20119;-52
2021/09/20 02:50:23;;;;;;;6.60;3.28;;;;;;;10.33;80.48;102051.84;4904268;29;20087;-54
2021/09/20 02:52:48;;;;;;;10.23;4.05;;;;;;;10.24;80.19;102048.59;4908495;29;20040;-53
2021/09/20 02:55:14;;;;;;;5.78;3.35;;;;;;;10.23;80.34;102049.63;4907655;29;20134;-52
2021/09/20 02:57:40;;;;;;;7.45;3.35;;;;;;;10.18;80.14;102053.94;4902853;29;20040;-55
2021/09/20 03:00:08;;;;;;;6.05;3.50;;;;;;;10.14;80.47;102047.38;4897654;29;20232;-55
2021/09/20 03:02:34;;;;;;;6.40;3.83;;;;;;;10.08;80.66;102048.22;4906693;29;20036;-55
2021/09/20 03:04:59;;;;;;;8.60;3.88;;;;;;;10.02;80.96;102054.41;4908123;29;20023;-53
2021/09/20 03:07:25;;;;;;;6.90;3.95;;;;;;;9.99;80.95;102047.63;4905896;29;20454;-53
2021/09/20 03:09:50;;;;;;;8.18;3.50;;;;;;;10.02;80.71;102054.41;4901902;29;20067;-53
2021/09/20 03:12:16;;;;;;;7.93;3.97;;;;;;;9.99;81.33;102048.47;4904898;29;20028;-52
2021/09/20 03:14:41;;;;;;;10.18;3.90;;;;;;;10.00;81.18;102055.44;4901178;29;20494;-52
2021/09/20 03:17:07;;;;;;;5.32;3.38;;;;;;;9.96;81.26;102046.22;4904052;29;20031;-55
2021/09/20 03:19:32;;;;;;;7.45;3.60;;;;;;;9.96;81.25;102050.75;4898988;29;20080;-54
2021/09/20 03:21:58;;;;;;;7.43;3.17;;;;;;;9.94;81.69;102053.63;4901932;29;20028;-53
2021/09/20 03:24:24;;;;;;;7.70;3.40;;;;;;;9.95;81.41;102052.59;4909087;29;20666;-52
2021/09/20 03:26:49;;;;;;;8.52;3.55;;;;;;;9.96;81.15;102053.41;4901093;29;20072;-51
2021/09/20 03:29:15;;;;;;;7.22;3.70;;;;;;;9.91;81.16;102051.38;4905661;29;20443;-54
2021/09/20 03:31:41;;;;;;;6.95;3.65;;;;;;;9.86;81.40;102053.03;4903032;29;20507;-53
2021/09/20 03:34:06;;;;;;;5.57;4.03;;;;;;;9.79;81.22;102055.75;4906087;29;20111;-54
2021/09/20 03:36:32;;;;;;;6.25;3.45;;;;;;;9.74;81.28;102052.06;4903557;29;20406;-55
2021/09/20 03:38:57;;;;;;;4.68;3.58;;;;;;;9.65;81.56;102059.47;4901075;29;20466;-53
2021/09/20 03:41:23;;;;;;;5.40;3.42;;;;;;;9.57;81.57;102054.38;4901580;29;20024;-52
2021/09/20 03:43:49;;;;;;;5.40;3.47;;;;;;;9.48;81.76;102059.09;4900295;29;20039;-52
2021/09/20 03:46:15;;;;;;;10.45;3.17;;;;;;;9.37;81.66;102057.09;4914774;29;20427;-51
2021/09/20 03:48:40;;;;;;;6.95;3.50;;;;;;;9.26;81.99;102063.88;4901230;29;20025;-52
2021/09/20 03:51:06;;;;;;;7.85;3.67;;;;;;;9.16;82.05;102063.47;4906654;29;20028;-54
2021/09/20 03:53:33;;;;;;;6.53;3.67;;;;;;;9.08;82.31;102063.69;4907366;29;20028;-56
2021/09/20 03:55:59;;;;;;;5.95;3.65;;;;;;;9.00;82.53;102058.56;4906802;29;20176;-52
2021/09/20 03:58:24;;;;;;;7.97;3.20;;;;;;;8.95;82.84;102059.13;4909476;29;20033;-54
2021/09/20 04:00:50;;;;;;;5.40;3.30;;;;;;;8.95;82.84;102058.31;4904599;29;20035;-54
2021/09/20 04:03:16;;;;;;;7.30;4.25;;;;;;;8.92;83.34;102070.25;4906255;29;20041;-51
2021/09/20 04:05:41;;;;;;;8.40;3.75;;;;;;;8.96;83.31;102063.47;4908302;29;20031;-52
2021/09/20 04:08:09;;;;;;;5.88;3.88;;;;;;;8.98;83.52;102060.59;4903134;29;20505;-54
2021/09/20 04:10:34;;;;;;;6.38;3.80;;;;;;;9.01;83.88;102061.00;4903271;29;20030;-53
2021/09/20 04:13:00;;;;;;;9.52;4.18;;;;;;;9.07;83.79;102064.72;4902797;29;20033;-52
2021/09/20 04:15:25;;;;;;;5.75;3.53;;;;;;;9.12;83.65;102064.09;4908040;29;20156;-52
2021/09/20 04:17:51;;;;;;;6.18;3.60;;;;;;;9.14;83.57;102059.34;4903726;29;20067;-52
2021/09/20 04:20:16;;;;;;;7.35;3.40;;;;;;;9.15;84.10;102063.66;4904031;29;20079;-52
2021/09/20 04:22:42;;;;;;;6.03;4.00;;;;;;;9.17;84.37;102065.13;4902437;29;20397;-55
2021/09/20 04:25:09;;;;;;;8.60;3.67;;;;;;;9.22;84.79;102068.00;4908673;29;20056;-53
2021/09/20 04:27:34;;;;;;;5.90;3.67;;;;;;;9.28;84.31;102072.50;4911171;29;20561;-52
2021/09/20 04:30:00;;;;;;;4.90;3.22;;;;;;;9.37;83.98;102075.81;4908076;29;20112;-52
2021/09/20 04:32:26;;;;;;;6.60;4.07;;;;;;;9.44;83.83;102073.13;4905657;29;20040;-53
2021/09/20 04:34:52;;;;;;;6.25;3.70;;;;;;;9.49;84.06;102081.31;4903657;29;20328;-52
2021/09/20 04:37:18;;;;;;;13.60;3.97;;;;;;;9.53;84.03;102078.06;4907227;29;20119;-52
2021/09/20 04:39:45;;;;;;;7.10;3.63;;;;;;;9.56;84.24;102077.63;4903154;29;20036;-51
2021/09/20 04:42:11;;;;;;;6.22;4.05;;;;;;;9.61;84.06;102083.16;4906221;29;20036;-55
2021/09/20 04:44:37;;;;;;;7.05;3.38;;;;;;;9.67;83.73;102081.50;4903722;29;20032;-53
2021/09/20 04:47:02;;;;;;;10.18;4.15;;;;;;;9.68;84.02;102083.13;4903364;29;20030;-53
2021/09/20 04:49:28;;;;;;;7.35;3.50;;;;;;;9.72;84.04;102081.72;4905089;29;20082;-51
2021/09/20 04:51:53;;;;;;;7.35;3.97;;;;;;;9.72;84.19;102079.03;4906332;29;20080;-55
2021/09/20 04:54:19;;;;;;;6.55;3.50;;;;;;;9.74;84.35;102082.31;4906690;29;20032;-52
2021/09/20 04:56:44;;;;;;;4.95;3.33;;;;;;;9.77;83.88;102084.56;4906515;29;20038;-53
2021/09/20 04:59:10;;;;;;;7.25;3.95;;;;;;;9.75;84.67;102086.66;4908197;29;20079;-53
2021/09/20 05:01:35;;;;;;;6.15;3.70;;;;;;;9.74;85.56;102089.53;4910032;29;20020;-54
2021/09/20 05:04:01;;;;;;;9.05;4.00;;;;;;;9.78;85.30;102088.06;4907777;29;20538;-52
2021/09/20 05:06:27;;;;;;;6.70;3.72;;;;;;;9.88;84.42;102094.66;4906588;29;20027;-52
2021/09/20 05:08:52;;;;;;;6.45;3.60;;;;;;;9.96;84.16;102093.56;4906893;29;20150;-54
2021/09/20 05:11:18;;;;;;;5.60;3.25;;;;;;;10.02;84.20;102102.63;4903726;29;20494;-55
2021/09/20 05:13:43;;;;;;;6.20;3.53;;;;;;;10.10;84.05;102095.19;4905373;29;20475;-53
2021/09/20 05:16:09;;;;;;;8.10;3.70;;;;;;;10.20;83.57;102100.06;4903030;29;20103;-52
2021/09/20 05:18:34;;;;;;;6.13;3.58;;;;;;;10.26;83.41;102101.97;4903217;29;20047;-53
2021/09/20 05:21:00;;;;;;;7.38;4.20;;;;;;;10.34;83.18;102100.88;4901438;29;20031;-52
2021/09/20 05:23:25;;;;;;;7.13;3.83;;;;;;;10.45;82.59;102106.41;4906342;29;20507;-52
2021/09/20 05:25:51;;;;;;;6.47;3.55;;;;;;;10.54;82.45;102105.09;4903768;29;20574;-55
2021/09/20 05:28:16;;;;;;;5.45;3.35;;;;;;;10.66;82.00;102104.44;4903620;29;20434;-52
2021/09/20 05:30:42;;;;;;;6.85;3.55;;;;;;;10.77;81.90;102103.72;4901273;29;20383;-55
2021/09/20 05:33:07;;;;;;;9.68;4.15;;;;;;;10.79;81.58;102101.66;4905714;29;20202;-53
2021/09/20 05:35:33;;;;;;;5.07;3.17;;;;;;;10.78;81.59;102108.06;4905628;29;20116;-54
2021/09/20 05:37:58;;;;;;;6.30;3.92;;;;;;;10.70;81.99;102116.34;4916470;29;20163;-51
2021/09/20 05:40:24;;;;;;;8.82;3.55;;;;;;;10.77;81.88;102107.25;4903428;29;20032;-53
2021/09/20 05:42:55;;;;;;;5.60;3.60;;;;;;;10.92;81.19;102106.91;4901828;29;20294;-53
2021/09/20 05:45:23;;;;;;;6.22;3.90;;;;;;;11.06;80.84;102105.78;4904567;29;20029;-52
2021/09/20 05:47:50;;;;;;;5.68;3.72;;;;;;;11.14;80.63;102110.91;4901696;29;20043;-53
2021/09/20 05:50:16;;;;;;;7.85;3.28;;;;;;;11.50;79.93;102109.34;4916504;29;20386;-54
2021/09/20 05:52:42;;;;;;;7.40;3.95;;;;;;;12.22;77.26;102110.47;4905858;29;20036;-52
2021/09/20 05:55:08;;;;;;;9.20;3.70;;;;;;;12.95;74.62;102106.75;4904180;29;20498;-56
2021/09/20 05:57:34;;;;;;;6.30;3.55;;;;;;;13.22;72.38;102115.25;4905988;29;20492;-53
2021/09/20 05:59:59;;;;;;;4.82;2.92;;;;;;;13.58;70.25;102103.44;4904973;29;20363;-53
2021/09/20 06:02:25;;;;;;;3.95;3.03;;;;;;;13.77;70.17;102115.72;4909288;29;20032;-52
2021/09/20 06:04:50;;;;;;;4.03;2.80;;;;;;;13.48;70.81;102117.50;4902410;29;20535;-52
2021/09/20 06:07:16;;;;;;;7.78;3.35;;;;;;;13.23;71.63;102119.56;4902460;29;20024;-52
2021/09/20 06:09:41;;;;;;;4.72;3.05;;;;;;;12.77;73.07;102122.97;4904213;29;20035;-52
2021/09/20 06:12:07;;;;;;;6.32;3.90;;;;;;;12.87;72.95;102124.03;4904111;29;20096;-56
2021/09/20 06:14:33;;;;;;;6.00;3.28;;;;;;;12.57;74.24;102125.94;4903858;29;20040;-55
2021/09/20 06:16:59;;;;;;;4.95;2.90;;;;;;;12.56;74.36;102130.47;4899837;29;20037;-52
2021/09/20 06:19:25;;;;;;;6.28;3.40;;;;;;;12.92;73.38;102136.78;4904266;29;20071;-55
2021/09/20 06:21:50;;;;;;;5.80;3.00;;;;;;;13.18;72.55;102138.31;4904570;29;20028;-52
2021/09/20 06:24:16;;;;;;;3.78;3.05;;;;;;;13.38;71.92;102135.28;4906508;29;20120;-53
2021/09/20 06:26:42;;;;;;;6.90;3.38;;;;;;;13.42;71.75;102139.16;4902291;29;20078;-53
2021/09/20 06:29:10;;;;;;;5.20;3.22;;;;;;;13.59;71.24;102134.69;4899884;29;20443;-55
2021/09/20 06:31:35;;;;;;;5.13;3.42;;;;;;;13.69;71.04;102131.44;4899118;29;20031;-53
2021/09/20 06:34:01;;;;;;;4.63;3.05;;;;;;;13.78;70.51;102130.00;4903721;29;20368;-52
2021/09/20 06:36:26;;;;;;;7.00;3.15;;;;;;;13.74;70.60;102134.25;4900584;29;20036;-53
2021/09/20 06:38:52;;;;;;;3.95;3.00;;;;;;;13.79;70.65;102137.03;4912901;29;20059;-55
2021/09/20 06:41:17;;;;;;;7.05;3.67;;;;;;;13.87;70.35;102144.78;4903860;29;20394;-54
2021/09/20 06:43:43;;;;;;;4.85;2.90;;;;;;;13.91;70.47;102151.31;4904290;29;20035;-55
2021/09/20 06:46:08;;;;;;;5.20;3.40;;;;;;;14.06;70.23;102140.06;4901897;29;20072;-53
2021/09/20 06:48:34;;;;;;;3.90;2.88;;;;;;;14.20;70.27;102146.84;4902408;29;20486;-55
2021/09/20 06:51:00;;;;;;;7.68;3.10;;;;;;;14.33;70.01;102143.84;4903235;29;20063;-52
2021/09/20 06:53:25;;;;;;;5.07;3.00;;;;;;;14.40;69.12;102138.34;4910562;29;20024;-55
2021/09/20 06:55:51;;;;;;;4.32;3.25;;;;;;;14.42;69.13;102142.44;4904273;29;21004;-54
2021/09/20 06:58:16;;;;;;;6.15;3.22;;;;;;;14.14;70.26;102145.88;4901519;29;20035;-52
2021/09/20 07:00:41;;;;;;;5.65;3.58;;;;;;;14.40;69.50;102154.50;4901372;29;20031;-52
2021/09/20 07:03:07;;;;;;;5.65;3.05;;;;;;;14.56;68.64;102151.09;4914169;29;20028;-52
2021/09/20 07:05:33;;;;;;;5.38;2.85;;;;;;;14.75;67.89;102141.75;4902874;29;20079;-55
2021/09/20 07:08:00;;;;;;;7.22;3.42;;;;;;;14.86;67.21;102139.22;4899228;29;20055;-52
2021/09/20 07:10:28;;;;;;;5.85;3.03;;;;;;;14.76;67.45;102147.97;4902306;29;20024;-52
2021/09/20 07:12:54;;;;;;;7.80;2.97;;;;;;;15.04;66.85;102147.09;4905233;29;20040;-56
2021/09/20 07:15:19;;;;;;;6.68;3.17;;;;;;;14.93;67.06;102148.00;4900228;29;20024;-52
2021/09/20 07:17:45;;;;;;;4.43;2.72;;;;;;;14.75;67.50;102149.03;4900167;29;20027;-52
2021/09/20 07:20:11;;;;;;;7.25;2.55;;;;;;;14.48;67.74;102152.28;4904733;29;20398;-54
2021/09/20 07:22:37;;;;;;;6.40;2.60;;;;;;;14.31;67.89;102145.97;4899737;29;20084;-55
2021/09/20 07:25:03;;;;;;;4.72;2.92;;;;;;;14.11;68.35;102157.16;4909627;29;20036;-52
2021/09/20 07:27:30;;;;;;;7.60;3.30;;;;;;;13.90;68.45;102160.47;4908314;29;20047;-52
2021/09/20 07:29:56;;;;;;;4.47;2.80;;;;;;;13.70;69.09;102166.22;4906749;29;20519;-52
2021/09/20 07:32:21;;;;;;;7.18;2.90;;;;;;;13.76;69.15;102153.66;4910870;29;20039;-54
2021/09/20 07:34:47;;;;;;;5.07;2.60;;;;;;;13.95;68.89;102167.84;4904637;29;20039;-53
2021/09/20 07:37:14;;;;;;;7.05;3.15;;;;;;;14.00;68.70;102173.31;4905611;29;20035;-53
2021/09/20 07:39:40;;;;;;;5.75;3.13;;;;;;;13.96;68.55;102175.69;4903895;29;20036;-54
2021/09/20 07:42:06;;;;;;;6.15;3.58;;;;;;;13.98;68.48;102178.13;4909555;29;20035;-52
2021/09/20 07:44:35;;;;;;;5.47;3.25;;;;;;;13.99;68.45;102177.91;4905025;29;20115;-54
2021/09/20 07:47:01;;;;;;;10.15;3.70;;;;;;;13.99;68.66;102177.06;4908310;29;20122;-53
2021/09/20 07:49:27;;;;;;;8.00;3.40;;;;;;;13.94;68.91;102190.44;4908001;29;20134;-53
2021/09/20 07:51:52;;;;;;;5.75;3.40;;;;;;;13.92;69.04;102188.00;4902693;29;20170;-54
2021/09/20 07:54:18;;;;;;;7.07;3.50;;;;;;;13.89;69.30;102191.16;4906918;29;20056;-52
2021/09/20 07:56:44;;;;;;;5.60;3.33;;;;;;;13.91;69.60;102191.75;4907046;29;20055;-52
2021/09/20 07:59:09;;;;;;;5.53;3.55;;;;;;;13.91;69.66;102191.75;4906145;29;20440;-54
2021/09/20 08:01:35;;;;;;;8.55;3.50;;;;;;;13.88;69.94;102187.66;4908392;29;20661;-52
2021/09/20 08:04:01;;;;;;;9.43;3.47;;;;;;;13.95;69.65;102198.28;4905883;29;20046;-56
2021/09/20 08:06:28;;;;;;;6.43;3.53;;;;;;;13.99;69.53;102193.25;4906094;29;20128;-53
2021/09/20 08:08:54;;;;;;;7.32;3.60;;;;;;;14.02;69.31;102188.22;4902557;29;20032;-55
2021/09/20 08:11:20;;;;;;;8.07;4.05;;;;;;;14.05;69.48;102190.44;4906952;29;20118;-54
2021/09/20 08:13:46;;;;;;;6.95;3.53;;;;;;;14.11;69.04;102196.75;4906245;29;20115;-54
2021/09/20 08:16:11;;;;;;;9.77;4.43;;;;;;;14.15;69.46;102196.03;4905806;29;20063;-52
2021/09/20 08:18:37;;;;;;;11.45;3.58;;;;;;;14.27;69.08;102197.91;4904966;29;20479;-52
2021/09/20 08:21:03;;;;;;;7.43;3.47;;;;;;;14.40;68.50;102200.34;4903510;29;20063;-52
2021/09/20 08:23:28;;;;;;;8.77;3.78;;;;;;;14.55;67.86;102199.88;4908162;29;20103;-54
2021/09/20 08:25:54;;;;;;;5.90;4.05;;;;;;;14.64;67.47;102201.94;4906448;29;20114;-56
2021/09/20 08:28:20;;;;;;;7.25;3.70;;;;;;;14.85;66.79;102205.84;4902136;29;20414;-52
2021/09/20 08:30:46;;;;;;;7.75;3.72;;;;;;;14.99;66.21;102207.22;4905316;29;20028;-53
2021/09/20 08:33:12;;;;;;;7.00;3.08;;;;;;;15.15;66.12;102200.22;4908837;29;20044;-52
2021/09/20 08:35:37;;;;;;;11.77;3.65;;;;;;;15.33;65.08;102199.97;4906365;29;20031;-55
2021/09/20 08:38:03;;;;;;;6.72;3.63;;;;;;;15.50;64.26;102201.88;4909818;29;20055;-54
2021/09/20 08:40:30;;;;;;;8.38;3.35;;;;;;;15.68;63.51;102209.75;4904630;29;20114;-54
2021/09/20 08:42:57;;;;;;;7.57;3.60;;;;;;;15.81;62.92;102204.03;4908827;29;20491;-55
2021/09/20 08:45:24;;;;;;;6.45;3.47;;;;;;;15.97;62.23;102208.56;4904610;29;20307;-55
2021/09/20 08:47:52;;;;;;;6.95;3.13;;;;;;;16.14;62.23;102195.00;4907476;29;20485;-55
2021/09/20 08:50:28;;;;;;;5.32;3.40;;;;;;;16.31;61.47;102197.66;4906554;29;20062;-52
2021/09/20 08:52:54;;;;;;;5.25;2.70;;;;;;;16.41;60.66;102194.28;4904765;29;21564;-55
2021/09/20 08:55:20;;;;;;;4.40;3.10;;;;;;;16.48;59.96;102201.13;4908945;29;20304;-52
2021/09/20 08:57:46;;;;;;;6.20;3.35;;;;;;;16.53;59.56;102198.50;4905368;29;20031;-53
2021/09/20 09:00:13;;;;;;;5.05;2.80;;;;;;;16.52;58.97;102196.06;4906564;29;20032;-53
2021/09/20 09:02:39;;;;;;;5.95;2.90;;;;;;;16.67;58.10;102195.41;4901557;29;20024;-55
2021/09/20 09:05:12;;;;;;;4.45;2.50;;;;;;;16.84;57.62;102202.38;4906244;29;20525;-53
2021/09/20 09:08:06;;;;;;;2.67;2.08;;;;;;;17.00;57.57;102200.66;4906343;29;20161;-56
2021/09/20 09:10:36;;;;;;;4.90;2.60;;;;;;;17.20;56.29;102205.44;4906725;29;20060;-54
2021/09/20 09:13:06;;;;;;;3.58;2.72;;;;;;;17.14;54.48;102201.88;4903791;29;20264;-55
2021/09/20 09:15:34;;;;;;;4.00;2.47;;;;;;;17.44;54.55;102205.94;4905934;29;20520;-54
2021/09/20 09:18:02;;;;;;;3.42;2.65;;;;;;;17.68;54.42;102201.81;4902680;29;20043;-52
2021/09/20 09:20:33;;;;;;;3.08;2.28;;;;;;;17.92;54.02;102204.94;4901994;29;20028;-52
2021/09/20 09:23:07;;;;;;;4.30;2.33;;;;;;;18.20;52.70;102211.91;4902327;29;20042;-54
2021/09/20 09:25:40;;;;;;;5.03;2.33;;;;;;;18.46;51.51;102199.25;4913826;29;20139;-52
2021/09/20 09:28:20;;;;;;;4.70;2.35;;;;;;;18.42;51.11;102198.16;4906345;29;20025;-55
2021/09/20 09:30:49;;;;;;;5.05;2.67;;;;;;;18.55;51.44;102205.00;4901557;29;20034;-54
2021/09/20 09:33:18;;;;;;;5.38;2.35;;;;;;;18.49;50.71;102200.63;4905700;29;21764;-54
2021/09/20 09:35:46;;;;;;;3.78;2.63;;;;;;;18.53;51.38;102204.44;4905457;29;20122;-52
2021/09/20 09:38:12;;;;;;;4.00;2.25;;;;;;;18.49;50.73;102203.31;4903180;29;20031;-52
2021/09/20 09:40:44;;;;;;;6.43;2.55;;;;;;;18.39;50.62;102201.41;4903703;29;20111;-52
2021/09/20 09:43:10;;;;;;;4.95;2.60;;;;;;;18.38;50.65;102205.19;4904169;29;20139;-52
2021/09/20 09:45:36;;;;;;;4.82;2.60;;;;;;;18.50;51.10;102207.72;4902024;29;20190;-54
2021/09/20 09:48:22;;;;;;;5.65;3.08;;;;;;;18.22;49.97;102203.50;4902407;29;20066;-52
2021/09/20 09:50:51;;;;;;;4.97;2.40;;;;;;;18.67;50.75;102206.44;4900434;29;20410;-52
2021/09/20 09:53:38;;;;;;;4.57;2.20;;;;;;;19.06;49.82;102205.16;4902278;29;20031;-52
2021/09/20 09:56:26;;;;;;;4.15;2.58;;;;;;;19.37;49.46;102205.97;4905319;29;20032;-52
2021/09/20 09:58:58;;;;;;;5.95;2.47;;;;;;;19.58;49.31;102205.75;4899468;29;20420;-53
2021/09/20 10:01:38;;;;;;;5.20;2.30;;;;;;;19.66;48.98;102207.09;4902583;29;20561;-56
2021/09/20 10:04:16;;;;;;;3.45;2.10;;;;;;;19.72;48.35;102213.34;4902437;29;20084;-52
2021/09/20 10:06:44;;;;;;;2.83;1.85;;;;;;;19.87;48.27;102205.97;4903815;29;20052;-53
2021/09/20 10:09:11;;;;;;;3.13;2.25;;;;;;;20.20;48.14;102203.72;4900722;29;20377;-53
2021/09/20 10:11:38;;;;;;;2.72;2.10;;;;;;;20.17;46.62;102209.72;4898776;29;20391;-55
2021/09/20 10:14:04;;;;;;;4.63;2.38;;;;;;;20.62;46.62;102200.56;4903015;29;20032;-52
2021/09/20 10:16:33;;;;;;;4.55;2.13;;;;;;;20.65;45.49;102194.59;4901892;29;20047;-55
2021/09/20 10:18:59;;;;;;;3.05;2.13;;;;;;;20.92;46.52;102201.50;4891002;29;20032;-52
2021/09/20 10:21:26;;;;;;;3.40;2.03;;;;;;;20.74;43.50;102192.06;4900277;29;20119;-52
2021/09/20 10:23:54;;;;;;;2.63;2.08;;;;;;;21.28;45.68;102202.91;4898754;29;20028;-53
2021/09/20 10:26:20;;;;;;;4.15;2.10;;;;;;;21.53;43.90;102198.31;4900661;29;20036;-55
2021/09/20 10:28:51;;;;;;;3.53;1.90;;;;;;;21.74;43.96;102207.16;4899849;29;20035;-53
2021/09/20 10:31:17;;;;;;;4.47;2.05;;;;;;;21.88;43.42;102202.59;4905435;29;20110;-53
2021/09/20 10:33:43;;;;;;;2.72;1.77;;;;;;;21.75;43.32;102204.13;4901234;29;20736;-56
2021/09/20 10:36:09;;;;;;;3.17;1.95;;;;;;;21.12;42.56;102202.16;4901579;29;20067;-53
2021/09/20 10:38:34;;;;;;;2.50;1.80;;;;;;;20.95;42.30;102203.66;4901647;29;20172;-56
2021/09/20 10:41:22;;;;;;;2.47;1.75;;;;;;;21.50;42.06;102198.91;4904943;29;20036;-54
2021/09/20 10:44:05;;;;;;;3.33;1.98;;;;;;;21.62;41.18;102197.41;4899906;29;20423;-54
2021/09/20 10:46:33;;;;;;;3.60;1.50;;;;;;;21.53;40.16;102199.13;4910077;29;20484;-55
2021/09/20 10:49:02;;;;;;;3.50;1.80;;;;;;;21.45;39.92;102202.47;4898944;29;20106;-54
2021/09/20 10:51:35;;;;;;;1.95;1.60;;;;;;;21.49;40.07;102202.72;4900520;29;20367;-53
2021/09/20 10:54:10;;;;;;;2.67;1.75;;;;;;;20.40;42.30;102205.53;4902197;29;20076;-55
2021/09/20 10:56:35;;;;;;;;;;;;;;;20.16;43.56;102208.91;4906138;29;20027;-55
2021/09/20 10:59:01;;;;;;;3.95;1.98;;;;;;;20.25;43.31;102205.59;4896969;29;20295;-56
2021/09/20 11:01:28;;;;;;;3.45;1.88;;;;;;;20.27;43.08;102201.50;4898303;29;20258;-52
2021/09/20 11:04:01;;;;;;;2.92;1.88;;;;;;;19.81;44.15;102211.72;4897483;29;20402;-55
2021/09/20 11:06:38;;;;;;;2.05;1.67;;;;;;;19.29;45.31;102215.50;4920287;29;20029;-54
2021/09/20 11:09:07;;;;;;;4.53;1.98;;;;;;;19.07;46.71;102209.50;4902159;29;20417;-55
2021/09/20 11:11:41;;;;;;;3.83;1.90;;;;;;;19.13;46.89;102213.84;4898620;29;20284;-55
2021/09/20 11:14:15;;;;;;;3.00;1.85;;;;;;;19.01;46.57;102214.91;4901902;29;20068;-56
2021/09/20 11:16:47;;;;;;;2.72;2.20;;;;;;;18.06;45.87;102221.59;4898219;29;20037;-53
2021/09/20 11:19:25;;;;;;;1.90;1.52;;;;;;;18.42;45.74;102225.28;4901559;29;20127;-56
2021/09/20 11:22:06;;;;;;;4.28;1.70;;;;;;;18.26;42.59;102224.41;4901624;29;20029;-56
2021/09/20 11:24:39;;;;;;;3.40;1.70;;;;;;;18.38;44.43;102219.59;4902769;29;20043;-55